sensor_id;sensor_type;location;lat;lon;timestamp;temperature;humidity
8008;DHT22;4049;49.468;11.200;2023-07-24T00:00:51;19.40;99.90
8008;DHT22;4049;49.468;11.200;2023-07-24T00:03:18;19.40;99.90
8008;DHT22;4049;49.468;11.200;2023-07-24T00:05:46;19.40;99.90
8008;DHT22;4049;49.468;11.200;2023-07-24T00:08:13;19.40;99.90
8008;DHT22;4049;49.468;11.200;2023-07-24T00:10:40;19.40;99.90
8008;DHT22;4049;49.468;11.200;2023-07-24T00:13:07;19.40;99.90
8008;DHT22;4049;49.468;11.200;2023-07-24T00:15:34;19.30;99.90
8008;DHT22;4049;49.468;11.200;2023-07-24T00:18:00;19.20;99.90
8008;DHT22;4049;49.468;11.200;2023-07-24T00:20:27;19.20;99.90
8008;DHT22;4049;49.468;11.200;2023-07-24T00:22:55;19.20;99.90
8008;DHT22;4049;49.468;11.200;2023-07-24T00:25:22;19.10;99.90
8008;DHT22;4049;49.468;11.200;2023-07-24T00:27:49;19.10;99.90
8008;DHT22;4049;49.468;11.200;2023-07-24T00:30:16;19.00;99.90
8008;DHT22;4049;49.468;11.200;2023-07-24T00:32:43;19.00;99.90
8008;DHT22;4049;49.468;11.200;2023-07-24T00:35:09;18.90;99.90
8008;DHT22;4049;49.468;11.200;2023-07-24T00:37:37;18.90;99.90
8008;DHT22;4049;49.468;11.200;2023-07-24T00:40:07;18.80;99.90
8008;DHT22;4049;49.468;11.200;2023-07-24T00:42:34;18.70;99.90
8008;DHT22;4049;49.468;11.200;2023-07-24T00:45:00;18.70;99.90
8008;DHT22;4049;49.468;11.200;2023-07-24T00:47:28;18.60;99.90
8008;DHT22;4049;49.468;11.200;2023-07-24T00:49:55;18.50;99.90
8008;DHT22;4049;49.468;11.200;2023-07-24T00:52:23;18.50;99.90
8008;DHT22;4049;49.468;11.200;2023-07-24T00:54:50;18.40;99.90
8008;DHT22;4049;49.468;11.200;2023-07-24T00:57:18;18.40;99.90
8008;DHT22;4049;49.468;11.200;2023-07-24T00:59:45;18.30;99.90
8008;DHT22;4049;49.468;11.200;2023-07-24T01:02:12;18.40;99.90
8008;DHT22;4049;49.468;11.200;2023-07-24T01:04:39;18.40;99.90
8008;DHT22;4049;49.468;11.200;2023-07-24T01:07:07;18.40;99.90
8008;DHT22;4049;49.468;11.200;2023-07-24T01:09:34;18.40;99.90
8008;DHT22;4049;49.468;11.200;2023-07-24T01:12:04;18.40;99.90
8008;DHT22;4049;49.468;11.200;2023-07-24T01:14:41;18.30;99.90
8008;DHT22;4049;49.468;11.200;2023-07-24T01:17:14;18.30;99.90
8008;DHT22;4049;49.468;11.200;2023-07-24T01:19:46;18.20;99.90
8008;DHT22;4049;49.468;11.200;2023-07-24T01:22:23;18.10;99.90
8008;DHT22;4049;49.468;11.200;2023-07-24T01:25:00;18.10;99.90
8008;DHT22;4049;49.468;11.200;2023-07-24T01:27:29;18.10;99.90
8008;DHT22;4049;49.468;11.200;2023-07-24T01:29:55;18.10;99.90
8008;DHT22;4049;49.468;11.200;2023-07-24T01:32:22;18.10;99.90
8008;DHT22;4049;49.468;11.200;2023-07-24T01:34:50;18.00;99.90
8008;DHT22;4049;49.468;11.200;2023-07-24T01:37:18;18.00;99.90
8008;DHT22;4049;49.468;11.200;2023-07-24T01:39:45;17.80;99.90
8008;DHT22;4049;49.468;11.200;2023-07-24T01:42:13;17.80;99.90
8008;DHT22;4049;49.468;11.200;2023-07-24T01:44:42;17.70;99.90
8008;DHT22;4049;49.468;11.200;2023-07-24T01:47:09;17.60;99.90
8008;DHT22;4049;49.468;11.200;2023-07-24T01:49:35;17.60;99.90
8008;DHT22;4049;49.468;11.200;2023-07-24T01:52:03;17.60;99.90
8008;DHT22;4049;49.468;11.200;2023-07-24T01:54:30;17.70;99.90
8008;DHT22;4049;49.468;11.200;2023-07-24T01:56:56;17.70;99.90
8008;DHT22;4049;49.468;11.200;2023-07-24T01:59:23;17.70;99.90
8008;DHT22;4049;49.468;11.200;2023-07-24T02:01:51;17.70;99.90
8008;DHT22;4049;49.468;11.200;2023-07-24T02:04:18;17.70;99.90
8008;DHT22;4049;49.468;11.200;2023-07-24T02:06:47;17.80;99.90
8008;DHT22;4049;49.468;11.200;2023-07-24T02:09:14;17.80;99.90
8008;DHT22;4049;49.468;11.200;2023-07-24T02:11:41;17.90;99.90
8008;DHT22;4049;49.468;11.200;2023-07-24T02:14:08;17.80;99.90
8008;DHT22;4049;49.468;11.200;2023-07-24T02:16:35;17.90;99.90
8008;DHT22;4049;49.468;11.200;2023-07-24T02:19:04;17.80;99.90
8008;DHT22;4049;49.468;11.200;2023-07-24T02:21:30;17.90;99.90
8008;DHT22;4049;49.468;11.200;2023-07-24T02:23:57;17.90;99.90
8008;DHT22;4049;49.468;11.200;2023-07-24T02:26:24;17.80;99.90
8008;DHT22;4049;49.468;11.200;2023-07-24T02:28:51;17.80;99.90
8008;DHT22;4049;49.468;11.200;2023-07-24T02:31:19;17.80;99.90
8008;DHT22;4049;49.468;11.200;2023-07-24T02:33:46;17.80;99.90
8008;DHT22;4049;49.468;11.200;2023-07-24T02:36:14;17.80;99.90
8008;DHT22;4049;49.468;11.200;2023-07-24T02:38:41;17.70;99.90
8008;DHT22;4049;49.468;11.200;2023-07-24T02:41:08;17.70;99.90
8008;DHT22;4049;49.468;11.200;2023-07-24T02:43:35;17.70;99.90
8008;DHT22;4049;49.468;11.200;2023-07-24T02:46:01;17.70;99.90
8008;DHT22;4049;49.468;11.200;2023-07-24T02:48:29;17.70;99.90
8008;DHT22;4049;49.468;11.200;2023-07-24T02:50:55;17.80;99.90
8008;DHT22;4049;49.468;11.200;2023-07-24T02:53:24;17.80;99.90
8008;DHT22;4049;49.468;11.200;2023-07-24T02:55:51;17.80;99.90
8008;DHT22;4049;49.468;11.200;2023-07-24T02:58:18;17.80;99.90
8008;DHT22;4049;49.468;11.200;2023-07-24T03:00:44;17.70;99.90
8008;DHT22;4049;49.468;11.200;2023-07-24T03:03:11;17.70;99.90
8008;DHT22;4049;49.468;11.200;2023-07-24T03:05:38;17.70;99.90
8008;DHT22;4049;49.468;11.200;2023-07-24T03:08:05;17.70;99.90
8008;DHT22;4049;49.468;11.200;2023-07-24T03:10:33;17.60;99.90
8008;DHT22;4049;49.468;11.200;2023-07-24T03:12:59;17.60;99.90
8008;DHT22;4049;49.468;11.200;2023-07-24T03:15:26;17.60;99.90
8008;DHT22;4049;49.468;11.200;2023-07-24T03:17:53;17.60;99.90
8008;DHT22;4049;49.468;11.200;2023-07-24T03:20:20;17.70;99.90
8008;DHT22;4049;49.468;11.200;2023-07-24T03:22:47;17.70;99.90
8008;DHT22;4049;49.468;11.200;2023-07-24T03:25:14;17.70;99.90
8008;DHT22;4049;49.468;11.200;2023-07-24T03:27:42;17.60;99.90
8008;DHT22;4049;49.468;11.200;2023-07-24T03:30:09;17.60;99.90
8008;DHT22;4049;49.468;11.200;2023-07-24T03:32:37;17.60;99.90
8008;DHT22;4049;49.468;11.200;2023-07-24T03:35:04;17.60;99.90
8008;DHT22;4049;49.468;11.200;2023-07-24T03:37:31;17.60;99.90
8008;DHT22;4049;49.468;11.200;2023-07-24T03:39:58;17.60;99.90
8008;DHT22;4049;49.468;11.200;2023-07-24T03:42:26;17.60;99.90
8008;DHT22;4049;49.468;11.200;2023-07-24T03:44:54;17.60;99.90
8008;DHT22;4049;49.468;11.200;2023-07-24T03:47:21;17.60;99.90
8008;DHT22;4049;49.468;11.200;2023-07-24T03:49:48;17.60;99.90
8008;DHT22;4049;49.468;11.200;2023-07-24T03:52:15;17.60;99.90
8008;DHT22;4049;49.468;11.200;2023-07-24T03:54:43;17.50;99.90
8008;DHT22;4049;49.468;11.200;2023-07-24T03:57:09;17.50;99.90
8008;DHT22;4049;49.468;11.200;2023-07-24T03:59:36;17.50;99.90
8008;DHT22;4049;49.468;11.200;2023-07-24T04:02:05;17.50;99.90
8008;DHT22;4049;49.468;11.200;2023-07-24T04:04:32;17.50;99.90
8008;DHT22;4049;49.468;11.200;2023-07-24T04:06:59;17.50;99.90
8008;DHT22;4049;49.468;11.200;2023-07-24T04:09:26;17.50;99.90
8008;DHT22;4049;49.468;11.200;2023-07-24T04:11:53;17.50;99.90
8008;DHT22;4049;49.468;11.200;2023-07-24T04:14:20;17.40;99.90
8008;DHT22;4049;49.468;11.200;2023-07-24T04:16:47;17.40;99.90
8008;DHT22;4049;49.468;11.200;2023-07-24T04:19:15;17.40;99.90
8008;DHT22;4049;49.468;11.200;2023-07-24T04:21:42;17.40;99.90
8008;DHT22;4049;49.468;11.200;2023-07-24T04:24:08;17.40;99.90
8008;DHT22;4049;49.468;11.200;2023-07-24T04:26:35;17.40;99.90
8008;DHT22;4049;49.468;11.200;2023-07-24T04:29:02;17.40;99.90
8008;DHT22;4049;49.468;11.200;2023-07-24T04:31:29;17.50;99.90
8008;DHT22;4049;49.468;11.200;2023-07-24T04:33:56;17.50;99.90
8008;DHT22;4049;49.468;11.200;2023-07-24T04:36:24;17.50;99.90
8008;DHT22;4049;49.468;11.200;2023-07-24T04:38:51;17.50;99.90
8008;DHT22;4049;49.468;11.200;2023-07-24T04:41:18;17.50;99.90
8008;DHT22;4049;49.468;11.200;2023-07-24T04:43:44;17.50;99.90
8008;DHT22;4049;49.468;11.200;2023-07-24T04:46:11;17.50;99.90
8008;DHT22;4049;49.468;11.200;2023-07-24T04:48:38;17.50;99.90
8008;DHT22;4049;49.468;11.200;2023-07-24T04:51:05;17.50;99.90
8008;DHT22;4049;49.468;11.200;2023-07-24T04:53:33;17.50;99.90
8008;DHT22;4049;49.468;11.200;2023-07-24T04:56:00;17.50;99.90
8008;DHT22;4049;49.468;11.200;2023-07-24T04:58:26;17.50;99.90
8008;DHT22;4049;49.468;11.200;2023-07-24T05:00:54;17.50;99.90
8008;DHT22;4049;49.468;11.200;2023-07-24T05:03:21;17.60;99.90
8008;DHT22;4049;49.468;11.200;2023-07-24T05:05:53;17.60;99.90
8008;DHT22;4049;49.468;11.200;2023-07-24T05:08:20;17.70;99.90
8008;DHT22;4049;49.468;11.200;2023-07-24T05:10:59;17.70;99.90
8008;DHT22;4049;49.468;11.200;2023-07-24T05:13:26;17.80;99.90
8008;DHT22;4049;49.468;11.200;2023-07-24T05:15:53;17.80;99.90
8008;DHT22;4049;49.468;11.200;2023-07-24T05:18:20;17.90;99.90
8008;DHT22;4049;49.468;11.200;2023-07-24T05:20:54;17.90;99.90
8008;DHT22;4049;49.468;11.200;2023-07-24T05:23:26;18.00;99.90
8008;DHT22;4049;49.468;11.200;2023-07-24T05:25:58;18.00;99.90
8008;DHT22;4049;49.468;11.200;2023-07-24T05:28:26;18.00;99.90
8008;DHT22;4049;49.468;11.200;2023-07-24T05:30:53;18.00;99.90
8008;DHT22;4049;49.468;11.200;2023-07-24T05:33:19;18.00;99.90
8008;DHT22;4049;49.468;11.200;2023-07-24T05:35:48;18.00;99.90
8008;DHT22;4049;49.468;11.200;2023-07-24T05:38:20;18.00;99.90
8008;DHT22;4049;49.468;11.200;2023-07-24T05:40:54;18.00;99.90
8008;DHT22;4049;49.468;11.200;2023-07-24T05:43:22;18.00;99.90
8008;DHT22;4049;49.468;11.200;2023-07-24T05:45:50;18.10;99.90
8008;DHT22;4049;49.468;11.200;2023-07-24T05:48:17;18.10;99.90
8008;DHT22;4049;49.468;11.200;2023-07-24T05:50:44;18.10;99.90
8008;DHT22;4049;49.468;11.200;2023-07-24T05:53:11;18.20;99.90
8008;DHT22;4049;49.468;11.200;2023-07-24T05:55:37;18.20;99.90
8008;DHT22;4049;49.468;11.200;2023-07-24T05:58:04;18.30;99.90
8008;DHT22;4049;49.468;11.200;2023-07-24T06:00:32;18.40;99.90
8008;DHT22;4049;49.468;11.200;2023-07-24T06:02:59;18.50;99.90
8008;DHT22;4049;49.468;11.200;2023-07-24T06:05:26;18.60;99.90
8008;DHT22;4049;49.468;11.200;2023-07-24T06:07:53;18.70;99.90
8008;DHT22;4049;49.468;11.200;2023-07-24T06:10:20;18.80;99.90
8008;DHT22;4049;49.468;11.200;2023-07-24T06:12:49;18.90;99.90
8008;DHT22;4049;49.468;11.200;2023-07-24T06:15:15;19.00;99.90
8008;DHT22;4049;49.468;11.200;2023-07-24T06:17:44;19.10;99.90
8008;DHT22;4049;49.468;11.200;2023-07-24T06:20:14;19.10;99.90
8008;DHT22;4049;49.468;11.200;2023-07-24T06:22:41;19.20;99.90
8008;DHT22;4049;49.468;11.200;2023-07-24T06:25:08;19.30;99.90
8008;DHT22;4049;49.468;11.200;2023-07-24T06:27:35;19.30;99.90
8008;DHT22;4049;49.468;11.200;2023-07-24T06:30:02;19.30;99.90
8008;DHT22;4049;49.468;11.200;2023-07-24T06:32:28;19.40;99.90
8008;DHT22;4049;49.468;11.200;2023-07-24T06:34:57;19.40;99.90
8008;DHT22;4049;49.468;11.200;2023-07-24T06:37:24;19.40;99.90
8008;DHT22;4049;49.468;11.200;2023-07-24T06:39:51;19.50;99.90
8008;DHT22;4049;49.468;11.200;2023-07-24T06:42:17;19.50;99.90
8008;DHT22;4049;49.468;11.200;2023-07-24T06:44:44;19.50;99.90
8008;DHT22;4049;49.468;11.200;2023-07-24T06:47:11;19.50;99.90
8008;DHT22;4049;49.468;11.200;2023-07-24T06:49:38;19.60;99.90
8008;DHT22;4049;49.468;11.200;2023-07-24T06:52:06;19.70;99.90
8008;DHT22;4049;49.468;11.200;2023-07-24T06:54:34;19.80;99.90
8008;DHT22;4049;49.468;11.200;2023-07-24T06:57:00;19.90;99.90
8008;DHT22;4049;49.468;11.200;2023-07-24T06:59:27;19.90;99.90
8008;DHT22;4049;49.468;11.200;2023-07-24T07:01:54;20.00;99.90
8008;DHT22;4049;49.468;11.200;2023-07-24T07:04:21;20.10;99.90
8008;DHT22;4049;49.468;11.200;2023-07-24T07:06:48;20.20;99.90
8008;DHT22;4049;49.468;11.200;2023-07-24T07:09:16;20.30;99.90
8008;DHT22;4049;49.468;11.200;2023-07-24T07:11:43;20.40;99.90
8008;DHT22;4049;49.468;11.200;2023-07-24T07:14:10;20.50;99.90
8008;DHT22;4049;49.468;11.200;2023-07-24T07:16:38;20.60;99.90
8008;DHT22;4049;49.468;11.200;2023-07-24T07:19:06;20.70;99.90
8008;DHT22;4049;49.468;11.200;2023-07-24T07:21:36;20.80;99.90
8008;DHT22;4049;49.468;11.200;2023-07-24T07:24:03;20.90;99.90
8008;DHT22;4049;49.468;11.200;2023-07-24T07:26:31;21.10;99.90
8008;DHT22;4049;49.468;11.200;2023-07-24T07:28:58;21.10;99.90
8008;DHT22;4049;49.468;11.200;2023-07-24T07:31:25;21.20;99.90
8008;DHT22;4049;49.468;11.200;2023-07-24T07:33:52;21.30;99.90
8008;DHT22;4049;49.468;11.200;2023-07-24T07:36:19;21.40;99.90
8008;DHT22;4049;49.468;11.200;2023-07-24T07:38:48;21.40;99.90
8008;DHT22;4049;49.468;11.200;2023-07-24T07:41:18;21.40;99.90
8008;DHT22;4049;49.468;11.200;2023-07-24T07:43:46;21.40;99.90
8008;DHT22;4049;49.468;11.200;2023-07-24T07:46:13;21.40;99.90
8008;DHT22;4049;49.468;11.200;2023-07-24T07:48:40;21.50;99.90
8008;DHT22;4049;49.468;11.200;2023-07-24T07:51:12;21.50;99.90
8008;DHT22;4049;49.468;11.200;2023-07-24T07:53:39;21.60;99.90
8008;DHT22;4049;49.468;11.200;2023-07-24T07:56:06;21.60;99.90
8008;DHT22;4049;49.468;11.200;2023-07-24T07:58:33;21.70;99.90
8008;DHT22;4049;49.468;11.200;2023-07-24T08:01:04;21.80;99.90
8008;DHT22;4049;49.468;11.200;2023-07-24T08:03:31;21.80;99.90
8008;DHT22;4049;49.468;11.200;2023-07-24T08:05:58;21.90;99.90
8008;DHT22;4049;49.468;11.200;2023-07-24T08:08:26;21.90;99.90
8008;DHT22;4049;49.468;11.200;2023-07-24T08:10:52;21.90;99.90
8008;DHT22;4049;49.468;11.200;2023-07-24T08:13:19;21.90;99.90
8008;DHT22;4049;49.468;11.200;2023-07-24T08:15:46;21.90;99.90
8008;DHT22;4049;49.468;11.200;2023-07-24T08:18:14;21.90;99.90
8008;DHT22;4049;49.468;11.200;2023-07-24T08:20:41;21.90;99.90
8008;DHT22;4049;49.468;11.200;2023-07-24T08:23:08;21.90;99.90
8008;DHT22;4049;49.468;11.200;2023-07-24T08:25:35;21.90;99.90
8008;DHT22;4049;49.468;11.200;2023-07-24T08:28:02;21.90;99.90
8008;DHT22;4049;49.468;11.200;2023-07-24T08:30:30;22.00;99.90
8008;DHT22;4049;49.468;11.200;2023-07-24T08:32:57;22.10;99.90
8008;DHT22;4049;49.468;11.200;2023-07-24T08:35:26;22.20;99.90
8008;DHT22;4049;49.468;11.200;2023-07-24T08:37:53;22.20;99.90
8008;DHT22;4049;49.468;11.200;2023-07-24T08:40:20;22.30;99.90
8008;DHT22;4049;49.468;11.200;2023-07-24T08:42:49;22.30;99.90
8008;DHT22;4049;49.468;11.200;2023-07-24T08:45:16;22.30;99.90
8008;DHT22;4049;49.468;11.200;2023-07-24T08:47:44;22.30;99.90
8008;DHT22;4049;49.468;11.200;2023-07-24T08:50:11;22.40;99.90
8008;DHT22;4049;49.468;11.200;2023-07-24T08:52:39;22.50;99.90
8008;DHT22;4049;49.468;11.200;2023-07-24T08:55:08;22.50;99.90
8008;DHT22;4049;49.468;11.200;2023-07-24T08:57:36;22.60;99.90
8008;DHT22;4049;49.468;11.200;2023-07-24T09:00:04;22.70;99.90
8008;DHT22;4049;49.468;11.200;2023-07-24T09:02:33;22.70;99.90
8008;DHT22;4049;49.468;11.200;2023-07-24T09:05:00;22.80;99.90
8008;DHT22;4049;49.468;11.200;2023-07-24T09:07:27;22.90;99.90
8008;DHT22;4049;49.468;11.200;2023-07-24T09:09:55;22.90;99.90
8008;DHT22;4049;49.468;11.200;2023-07-24T09:12:22;22.90;99.90
8008;DHT22;4049;49.468;11.200;2023-07-24T09:15:00;23.00;99.90
8008;DHT22;4049;49.468;11.200;2023-07-24T09:17:28;23.10;99.90
8008;DHT22;4049;49.468;11.200;2023-07-24T09:19:56;23.10;99.90
8008;DHT22;4049;49.468;11.200;2023-07-24T09:22:24;23.10;99.90
8008;DHT22;4049;49.468;11.200;2023-07-24T09:24:53;23.20;99.90
8008;DHT22;4049;49.468;11.200;2023-07-24T09:27:24;23.20;99.90
8008;DHT22;4049;49.468;11.200;2023-07-24T09:29:51;23.20;99.90
8008;DHT22;4049;49.468;11.200;2023-07-24T09:32:19;23.20;99.90
8008;DHT22;4049;49.468;11.200;2023-07-24T09:34:47;23.30;99.90
8008;DHT22;4049;49.468;11.200;2023-07-24T09:37:26;23.30;99.90
8008;DHT22;4049;49.468;11.200;2023-07-24T09:39:53;23.40;99.90
8008;DHT22;4049;49.468;11.200;2023-07-24T09:42:29;23.40;99.90
8008;DHT22;4049;49.468;11.200;2023-07-24T09:44:56;23.40;99.90
8008;DHT22;4049;49.468;11.200;2023-07-24T09:47:25;23.50;99.90
8008;DHT22;4049;49.468;11.200;2023-07-24T09:49:52;23.60;99.90
8008;DHT22;4049;49.468;11.200;2023-07-24T09:52:20;23.70;99.90
8008;DHT22;4049;49.468;11.200;2023-07-24T09:54:54;23.80;99.90
8008;DHT22;4049;49.468;11.200;2023-07-24T09:57:23;23.90;99.90
8008;DHT22;4049;49.468;11.200;2023-07-24T09:59:52;24.00;99.90
8008;DHT22;4049;49.468;11.200;2023-07-24T10:02:20;24.10;99.90
8008;DHT22;4049;49.468;11.200;2023-07-24T10:04:47;24.00;99.90
8008;DHT22;4049;49.468;11.200;2023-07-24T10:07:15;24.10;99.90
8008;DHT22;4049;49.468;11.200;2023-07-24T10:09:47;24.10;99.90
8008;DHT22;4049;49.468;11.200;2023-07-24T10:12:15;24.20;99.90
8008;DHT22;4049;49.468;11.200;2023-07-24T10:14:43;24.30;99.90
8008;DHT22;4049;49.468;11.200;2023-07-24T10:17:12;24.30;99.90
8008;DHT22;4049;49.468;11.200;2023-07-24T10:19:40;24.40;99.90
8008;DHT22;4049;49.468;11.200;2023-07-24T10:22:09;24.40;99.90
8008;DHT22;4049;49.468;11.200;2023-07-24T10:24:36;24.40;99.90
8008;DHT22;4049;49.468;11.200;2023-07-24T10:27:05;24.40;99.90
8008;DHT22;4049;49.468;11.200;2023-07-24T10:29:36;24.40;99.90
8008;DHT22;4049;49.468;11.200;2023-07-24T10:32:18;24.40;99.90
8008;DHT22;4049;49.468;11.200;2023-07-24T10:34:45;24.40;99.90
8008;DHT22;4049;49.468;11.200;2023-07-24T10:37:11;24.40;99.90
8008;DHT22;4049;49.468;11.200;2023-07-24T10:39:39;24.30;99.90
8008;DHT22;4049;49.468;11.200;2023-07-24T10:42:08;24.40;99.90
8008;DHT22;4049;49.468;11.200;2023-07-24T10:44:35;24.30;99.90
8008;DHT22;4049;49.468;11.200;2023-07-24T10:47:03;24.30;99.90
8008;DHT22;4049;49.468;11.200;2023-07-24T10:49:31;24.30;99.90
8008;DHT22;4049;49.468;11.200;2023-07-24T10:51:58;24.30;99.90
8008;DHT22;4049;49.468;11.200;2023-07-24T10:54:25;24.20;99.90
8008;DHT22;4049;49.468;11.200;2023-07-24T10:59:38;24.10;99.90
8008;DHT22;4049;49.468;11.200;2023-07-24T11:02:05;24.00;99.90
8008;DHT22;4049;49.468;11.200;2023-07-24T11:04:34;23.90;99.90
8008;DHT22;4049;49.468;11.200;2023-07-24T11:07:01;23.90;99.90
8008;DHT22;4049;49.468;11.200;2023-07-24T11:09:35;23.80;99.90
8008;DHT22;4049;49.468;11.200;2023-07-24T11:12:13;23.70;99.90
8008;DHT22;4049;49.468;11.200;2023-07-24T11:14:50;23.70;99.90
8008;DHT22;4049;49.468;11.200;2023-07-24T11:17:19;23.70;99.90
8008;DHT22;4049;49.468;11.200;2023-07-24T11:19:47;23.60;99.90
8008;DHT22;4049;49.468;11.200;2023-07-24T11:22:14;23.50;99.90
8008;DHT22;4049;49.468;11.200;2023-07-24T11:24:45;23.50;99.90
8008;DHT22;4049;49.468;11.200;2023-07-24T11:27:13;23.40;99.90
8008;DHT22;4049;49.468;11.200;2023-07-24T11:29:40;23.40;99.90
8008;DHT22;4049;49.468;11.200;2023-07-24T11:32:07;23.40;99.90
8008;DHT22;4049;49.468;11.200;2023-07-24T11:34:35;23.30;99.90
8008;DHT22;4049;49.468;11.200;2023-07-24T11:37:04;23.20;99.90
8008;DHT22;4049;49.468;11.200;2023-07-24T11:39:31;23.20;99.90
8008;DHT22;4049;49.468;11.200;2023-07-24T11:41:59;23.20;99.90
8008;DHT22;4049;49.468;11.200;2023-07-24T11:44:27;23.20;99.90
8008;DHT22;4049;49.468;11.200;2023-07-24T11:47:00;23.20;99.90
8008;DHT22;4049;49.468;11.200;2023-07-24T11:49:28;23.20;99.90
8008;DHT22;4049;49.468;11.200;2023-07-24T11:52:00;23.10;99.90
8008;DHT22;4049;49.468;11.200;2023-07-24T11:54:28;23.20;99.90
8008;DHT22;4049;49.468;11.200;2023-07-24T11:56:55;23.20;99.90
8008;DHT22;4049;49.468;11.200;2023-07-24T11:59:22;23.20;99.90
8008;DHT22;4049;49.468;11.200;2023-07-24T12:01:49;23.30;99.90
8008;DHT22;4049;49.468;11.200;2023-07-24T12:04:16;23.20;99.90
8008;DHT22;4049;49.468;11.200;2023-07-24T12:06:43;23.20;99.90
8008;DHT22;4049;49.468;11.200;2023-07-24T12:09:11;23.20;99.90
8008;DHT22;4049;49.468;11.200;2023-07-24T12:11:43;23.10;99.90
8008;DHT22;4049;49.468;11.200;2023-07-24T12:14:12;23.10;99.90
8008;DHT22;4049;49.468;11.200;2023-07-24T12:16:39;23.10;99.90
8008;DHT22;4049;49.468;11.200;2023-07-24T12:19:08;23.10;99.90
8008;DHT22;4049;49.468;11.200;2023-07-24T12:21:35;23.10;99.90
8008;DHT22;4049;49.468;11.200;2023-07-24T12:24:01;23.10;99.90
8008;DHT22;4049;49.468;11.200;2023-07-24T12:26:28;23.10;99.90
8008;DHT22;4049;49.468;11.200;2023-07-24T12:28:56;23.20;99.90
8008;DHT22;4049;49.468;11.200;2023-07-24T12:31:25;23.20;99.90
8008;DHT22;4049;49.468;11.200;2023-07-24T12:33:52;23.20;99.90
8008;DHT22;4049;49.468;11.200;2023-07-24T12:36:19;23.30;99.90
8008;DHT22;4049;49.468;11.200;2023-07-24T12:38:46;23.30;99.90
8008;DHT22;4049;49.468;11.200;2023-07-24T12:41:14;23.30;99.90
8008;DHT22;4049;49.468;11.200;2023-07-24T12:43:40;23.20;99.90
8008;DHT22;4049;49.468;11.200;2023-07-24T12:46:09;23.20;99.90
8008;DHT22;4049;49.468;11.200;2023-07-24T12:48:35;23.10;99.90
8008;DHT22;4049;49.468;11.200;2023-07-24T12:51:03;23.10;99.90
8008;DHT22;4049;49.468;11.200;2023-07-24T12:53:30;23.00;99.90
8008;DHT22;4049;49.468;11.200;2023-07-24T12:55:56;23.00;99.90
8008;DHT22;4049;49.468;11.200;2023-07-24T12:58:24;22.90;99.90
8008;DHT22;4049;49.468;11.200;2023-07-24T13:00:50;22.90;99.90
8008;DHT22;4049;49.468;11.200;2023-07-24T13:03:21;22.90;99.90
8008;DHT22;4049;49.468;11.200;2023-07-24T13:05:48;22.80;99.90
8008;DHT22;4049;49.468;11.200;2023-07-24T13:08:15;22.70;99.90
8008;DHT22;4049;49.468;11.200;2023-07-24T13:10:41;22.50;99.90
8008;DHT22;4049;49.468;11.200;2023-07-24T13:13:08;22.50;99.90
8008;DHT22;4049;49.468;11.200;2023-07-24T13:15:35;22.50;99.90
8008;DHT22;4049;49.468;11.200;2023-07-24T13:18:02;22.50;99.90
8008;DHT22;4049;49.468;11.200;2023-07-24T13:20:30;22.60;99.90
8008;DHT22;4049;49.468;11.200;2023-07-24T13:22:57;22.70;99.90
8008;DHT22;4049;49.468;11.200;2023-07-24T13:25:24;22.90;99.90
8008;DHT22;4049;49.468;11.200;2023-07-24T13:27:51;23.30;99.90
8008;DHT22;4049;49.468;11.200;2023-07-24T13:30:18;23.60;99.90
8008;DHT22;4049;49.468;11.200;2023-07-24T13:32:45;23.80;99.90
8008;DHT22;4049;49.468;11.200;2023-07-24T13:35:12;24.10;99.90
8008;DHT22;4049;49.468;11.200;2023-07-24T13:37:42;24.30;99.90
8008;DHT22;4049;49.468;11.200;2023-07-24T13:40:09;24.40;99.90
8008;DHT22;4049;49.468;11.200;2023-07-24T13:42:36;24.40;99.90
8008;DHT22;4049;49.468;11.200;2023-07-24T13:45:03;24.40;99.90
8008;DHT22;4049;49.468;11.200;2023-07-24T13:47:30;24.50;99.90
8008;DHT22;4049;49.468;11.200;2023-07-24T13:49:57;24.60;99.90
8008;DHT22;4049;49.468;11.200;2023-07-24T13:52:27;24.70;99.90
8008;DHT22;4049;49.468;11.200;2023-07-24T13:54:57;24.80;99.90
8008;DHT22;4049;49.468;11.200;2023-07-24T13:57:23;24.80;99.90
8008;DHT22;4049;49.468;11.200;2023-07-24T13:59:50;24.80;99.90
8008;DHT22;4049;49.468;11.200;2023-07-24T14:02:17;24.70;99.90
8008;DHT22;4049;49.468;11.200;2023-07-24T14:04:44;24.70;99.90
8008;DHT22;4049;49.468;11.200;2023-07-24T14:07:11;24.50;99.90
8008;DHT22;4049;49.468;11.200;2023-07-24T14:09:39;24.30;99.90
8008;DHT22;4049;49.468;11.200;2023-07-24T14:12:07;24.10;99.90
8008;DHT22;4049;49.468;11.200;2023-07-24T14:14:34;24.00;99.90
8008;DHT22;4049;49.468;11.200;2023-07-24T14:17:01;23.90;99.90
8008;DHT22;4049;49.468;11.200;2023-07-24T14:19:28;23.90;99.90
8008;DHT22;4049;49.468;11.200;2023-07-24T14:21:55;23.90;99.90
8008;DHT22;4049;49.468;11.200;2023-07-24T14:24:22;24.00;99.90
8008;DHT22;4049;49.468;11.200;2023-07-24T14:26:49;24.10;99.90
8008;DHT22;4049;49.468;11.200;2023-07-24T14:29:17;24.10;99.90
8008;DHT22;4049;49.468;11.200;2023-07-24T14:31:44;24.10;99.90
8008;DHT22;4049;49.468;11.200;2023-07-24T14:34:11;24.10;99.90
8008;DHT22;4049;49.468;11.200;2023-07-24T14:36:38;24.30;99.90
8008;DHT22;4049;49.468;11.200;2023-07-24T14:39:05;24.40;99.90
8008;DHT22;4049;49.468;11.200;2023-07-24T14:41:33;24.40;99.90
8008;DHT22;4049;49.468;11.200;2023-07-24T14:44:00;24.30;99.90
8008;DHT22;4049;49.468;11.200;2023-07-24T14:46:30;24.20;99.90
8008;DHT22;4049;49.468;11.200;2023-07-24T14:48:56;24.10;99.90
8008;DHT22;4049;49.468;11.200;2023-07-24T14:51:23;24.00;99.90
8008;DHT22;4049;49.468;11.200;2023-07-24T14:53:50;24.00;99.90
8008;DHT22;4049;49.468;11.200;2023-07-24T14:56:17;24.00;99.90
8008;DHT22;4049;49.468;11.200;2023-07-24T14:58:44;23.90;99.90
8008;DHT22;4049;49.468;11.200;2023-07-24T15:01:11;23.90;99.90
8008;DHT22;4049;49.468;11.200;2023-07-24T15:03:39;23.90;99.90
8008;DHT22;4049;49.468;11.200;2023-07-24T15:06:06;23.90;99.90
8008;DHT22;4049;49.468;11.200;2023-07-24T15:08:33;23.90;99.90
8008;DHT22;4049;49.468;11.200;2023-07-24T15:11:01;24.00;99.90
8008;DHT22;4049;49.468;11.200;2023-07-24T15:13:28;24.10;99.90
8008;DHT22;4049;49.468;11.200;2023-07-24T15:15:55;24.10;99.90
8008;DHT22;4049;49.468;11.200;2023-07-24T15:18:21;24.10;99.90
8008;DHT22;4049;49.468;11.200;2023-07-24T15:20:50;24.00;99.90
8008;DHT22;4049;49.468;11.200;2023-07-24T15:23:17;24.00;99.90
8008;DHT22;4049;49.468;11.200;2023-07-24T15:25:44;23.90;99.90
8008;DHT22;4049;49.468;11.200;2023-07-24T15:28:10;23.90;99.90
8008;DHT22;4049;49.468;11.200;2023-07-24T15:30:38;23.80;99.90
8008;DHT22;4049;49.468;11.200;2023-07-24T15:33:04;23.80;99.90
8008;DHT22;4049;49.468;11.200;2023-07-24T15:35:31;23.80;99.90
8008;DHT22;4049;49.468;11.200;2023-07-24T15:37:59;23.70;99.90
8008;DHT22;4049;49.468;11.200;2023-07-24T15:40:29;23.70;99.90
8008;DHT22;4049;49.468;11.200;2023-07-24T15:42:56;23.70;99.90
8008;DHT22;4049;49.468;11.200;2023-07-24T15:45:22;23.60;99.90
8008;DHT22;4049;49.468;11.200;2023-07-24T15:47:49;23.60;99.90
8008;DHT22;4049;49.468;11.200;2023-07-24T15:50:16;23.60;99.90